createdAt,value
2018-02-10T00:00:52.620Z,74.23
2018-02-10T00:03:21.016Z,70.40
2018-02-10T00:05:49.453Z,69.50
2018-02-10T00:08:17.863Z,68.77
2018-02-10T00:10:46.279Z,62.50
2018-02-10T00:13:14.749Z,75.10
2018-02-10T00:15:43.151Z,67.57
2018-02-10T00:18:11.554Z,68.53
2018-02-10T00:20:39.998Z,68.77
2018-02-10T00:23:08.409Z,74.13
2018-02-10T00:25:36.802Z,66.93
2018-02-10T00:28:05.273Z,65.20
2018-02-10T00:30:33.685Z,69.13
2018-02-10T00:33:02.102Z,65.03
2018-02-10T00:35:30.536Z,63.77
2018-02-10T00:37:58.964Z,64.23
2018-02-10T00:40:27.379Z,60.83
2018-02-10T00:42:55.820Z,68.93
2018-02-10T00:45:24.296Z,69.43
2018-02-10T00:47:52.693Z,62.87
2018-02-10T00:50:21.167Z,69.10
2018-02-10T00:52:49.565Z,68.53
2018-02-10T00:55:17.998Z,64.17
2018-02-10T00:57:46.445Z,62.20
2018-02-10T01:00:14.865Z,65.03
2018-02-10T01:02:43.302Z,63.50
2018-02-10T01:05:11.759Z,65.00
2018-02-10T01:07:40.181Z,64.50
2018-02-10T01:10:08.602Z,63.13
2018-02-10T01:12:37.041Z,64.17
2018-02-10T01:15:05.450Z,64.60
2018-02-10T01:17:33.848Z,64.40
2018-02-10T01:20:02.306Z,58.20
2018-02-10T01:22:30.714Z,69.10
2018-02-10T01:24:59.112Z,58.63
2018-02-10T01:27:27.761Z,63.03
2018-02-10T01:29:56.160Z,64.67
2018-02-10T01:32:24.575Z,65.80
2018-02-10T01:34:53.030Z,62.73
2018-02-10T01:37:21.423Z,65.37
2018-02-10T01:39:49.823Z,66.17
2018-02-10T01:42:18.265Z,61.37
2018-02-10T01:44:46.682Z,66.07
2018-02-10T01:47:15.098Z,59.13
2018-02-10T01:49:43.551Z,63.87
2018-02-10T01:52:11.973Z,64.47
2018-02-10T01:54:40.390Z,69.50
2018-02-10T01:57:08.836Z,62.60
2018-02-10T01:59:37.228Z,64.37
2018-02-10T02:02:05.648Z,64.90
2018-02-10T02:04:34.081Z,67.50
2018-02-10T02:07:02.487Z,60.77
2018-02-10T02:09:30.880Z,64.67
2018-02-10T02:11:59.354Z,65.90
2018-02-10T02:14:27.770Z,64.30
2018-02-10T02:16:56.185Z,65.47
2018-02-10T02:19:24.657Z,63.47
2018-02-10T02:21:53.056Z,68.60
2018-02-10T02:24:21.447Z,72.17
2018-02-10T02:26:49.906Z,73.97
2018-02-10T02:29:18.317Z,68.90
2018-02-10T02:31:46.716Z,70.70
2018-02-10T02:34:15.178Z,68.43
2018-02-10T02:36:43.566Z,66.93
2018-02-10T02:39:11.983Z,65.57
2018-02-10T02:41:40.436Z,70.20
2018-02-10T02:44:08.890Z,62.73
2018-02-10T02:46:37.336Z,59.43
2018-02-10T02:49:05.777Z,66.73
2018-02-10T02:51:34.162Z,66.30
2018-02-10T02:54:02.564Z,65.47
2018-02-10T02:56:31.016Z,57.57
2018-02-10T02:58:59.433Z,69.57
2018-02-10T03:01:27.833Z,73.57
2018-02-10T03:03:56.409Z,65.17
2018-02-10T03:06:24.836Z,69.53
2018-02-10T03:08:53.241Z,64.13
2018-02-10T03:11:21.674Z,62.50
2018-02-10T03:13:50.077Z,66.80
2018-02-10T03:16:18.469Z,67.60
2018-02-10T03:18:46.921Z,63.77
2018-02-10T03:21:15.317Z,65.40
2018-02-10T03:23:43.739Z,63.27
2018-02-10T03:26:12.177Z,65.90
2018-02-10T03:28:40.602Z,67.40
2018-02-10T03:31:09.022Z,65.83
2018-02-10T03:33:37.495Z,66.07
2018-02-10T03:36:06.047Z,68.77
2018-02-10T03:38:34.466Z,69.00
2018-02-10T03:41:02.930Z,85.87
2018-02-10T03:43:31.351Z,72.40
2018-02-10T03:45:59.764Z,70.83
2018-02-10T03:48:28.433Z,79.13
2018-02-10T03:50:56.844Z,75.40
2018-02-10T03:53:25.235Z,78.03
2018-02-10T03:55:53.736Z,68.50
2018-02-10T03:58:22.129Z,71.53
2018-02-10T04:00:50.549Z,77.80
2018-02-10T04:03:19.149Z,72.03
2018-02-10T04:05:47.542Z,75.13
2018-02-10T04:08:15.930Z,67.17
2018-02-10T04:10:44.368Z,77.83
2018-02-10T04:13:12.779Z,74.20
2018-02-10T04:15:41.177Z,68.13
2018-02-10T04:18:09.629Z,73.67
2018-02-10T04:20:38.027Z,69.63
2018-02-10T04:23:06.430Z,72.93
2018-02-10T04:25:34.877Z,71.17
2018-02-10T04:28:03.280Z,72.00
2018-02-10T04:30:31.698Z,79.83
2018-02-10T04:33:00.157Z,76.73
2018-02-10T04:35:28.558Z,75.20
2018-02-10T04:37:56.970Z,78.53
2018-02-10T04:40:25.421Z,76.40
2018-02-10T04:42:53.828Z,87.50
2018-02-10T04:45:22.222Z,75.57
2018-02-10T04:47:50.664Z,80.27
2018-02-10T04:50:19.076Z,71.00
2018-02-10T04:52:47.481Z,70.50
2018-02-10T04:55:15.914Z,74.33
2018-02-10T04:57:44.313Z,80.40
2018-02-10T05:00:12.723Z,72.90
2018-02-10T05:02:41.278Z,81.07
2018-02-10T05:05:09.696Z,73.43
2018-02-10T05:07:38.123Z,81.60
2018-02-10T05:10:06.601Z,72.50
2018-02-10T05:12:35.027Z,78.37
2018-02-10T05:15:03.456Z,83.00
2018-02-10T05:17:31.905Z,80.77
2018-02-10T05:20:00.298Z,69.97
2018-02-10T05:22:28.714Z,77.63
2018-02-10T05:24:57.181Z,81.17
2018-02-10T05:27:25.599Z,79.47
2018-02-10T05:29:54.013Z,73.43
2018-02-10T05:32:22.447Z,83.20
2018-02-10T05:34:50.829Z,71.80
2018-02-10T05:37:19.248Z,89.07
2018-02-10T05:39:47.689Z,74.47
2018-02-10T05:42:16.102Z,72.10
2018-02-10T05:44:44.497Z,73.77
2018-02-10T05:47:12.939Z,80.37
2018-02-10T05:49:41.378Z,79.43
2018-02-10T05:52:09.799Z,74.63
2018-02-10T05:54:38.241Z,86.37
2018-02-10T05:57:06.638Z,75.47
2018-02-10T05:59:35.035Z,85.83
2018-02-10T06:02:03.477Z,84.47
2018-02-10T06:04:31.888Z,83.93
2018-02-10T06:07:00.304Z,87.83
2018-02-10T06:09:28.757Z,79.17
2018-02-10T06:11:57.174Z,72.53
2018-02-10T06:14:25.597Z,112.87
2018-02-10T06:16:54.633Z,93.87
2018-02-10T06:19:23.033Z,91.73
2018-02-10T06:21:51.439Z,83.40
2018-02-10T06:24:19.874Z,76.30
2018-02-10T06:26:48.276Z,76.77
2018-02-10T06:29:16.685Z,88.23
2018-02-10T06:31:45.170Z,83.47
2018-02-10T06:34:13.585Z,89.60
2018-02-10T06:36:42.009Z,92.47
2018-02-10T06:39:10.506Z,91.87
2018-02-10T06:41:38.953Z,84.13
2018-02-10T06:44:07.429Z,96.87
2018-02-10T06:46:35.936Z,88.03
2018-02-10T06:49:04.389Z,88.73
2018-02-10T06:51:32.824Z,87.00
2018-02-10T06:54:01.291Z,89.63
2018-02-10T06:56:29.715Z,86.93
2018-02-10T06:58:58.150Z,98.37
2018-02-10T07:01:26.645Z,94.43
2018-02-10T07:03:55.069Z,92.13
2018-02-10T07:06:23.478Z,93.77
2018-02-10T07:08:52.183Z,88.70
2018-02-10T07:11:20.603Z,84.90
2018-02-10T07:13:49.023Z,94.33
2018-02-10T07:16:17.485Z,94.97
2018-02-10T07:18:45.897Z,83.03
2018-02-10T07:21:14.321Z,97.70
2018-02-10T07:23:42.773Z,100.37
2018-02-10T07:26:11.208Z,99.63
2018-02-10T07:28:39.629Z,90.70
2018-02-10T07:31:08.121Z,92.17
2018-02-10T07:33:36.545Z,81.13
2018-02-10T07:36:04.961Z,90.03
2018-02-10T07:38:33.426Z,102.20
2018-02-10T07:41:01.850Z,103.43
2018-02-10T07:43:30.280Z,100.60
2018-02-10T07:45:58.742Z,93.97
2018-02-10T07:48:27.154Z,86.20
2018-02-10T07:50:55.584Z,99.30
2018-02-10T07:53:24.069Z,99.13
2018-02-10T07:55:52.487Z,96.00
2018-02-10T07:58:20.909Z,96.43
2018-02-10T08:00:49.404Z,103.57
2018-02-10T08:03:17.833Z,89.37
2018-02-10T08:05:46.269Z,130.37
2018-02-10T08:08:14.747Z,222.70
2018-02-10T08:10:43.188Z,172.23
2018-02-10T08:13:11.637Z,164.63
2018-02-10T08:15:40.137Z,102.90
2018-02-10T08:18:08.586Z,101.03
2018-02-10T08:20:37.019Z,96.63
2018-02-10T08:23:05.500Z,92.53
2018-02-10T08:25:33.953Z,87.00
2018-02-10T08:28:02.386Z,90.70
2018-02-10T08:30:30.852Z,91.23
2018-02-10T08:32:59.283Z,150.37
2018-02-10T08:35:27.750Z,84.77
2018-02-10T08:37:56.259Z,101.87
2018-02-10T08:40:24.702Z,132.30
2018-02-10T08:42:53.137Z,101.43
2018-02-10T08:45:21.603Z,168.37
2018-02-10T08:47:50.067Z,139.30
2018-02-10T08:50:18.534Z,113.53
2018-02-10T08:52:47.088Z,117.43
2018-02-10T08:55:15.545Z,240.47
2018-02-10T08:57:44.003Z,117.07
2018-02-10T09:00:12.479Z,97.23
2018-02-10T09:02:40.911Z,107.00
2018-02-10T09:05:09.412Z,87.03
2018-02-10T09:07:37.908Z,84.83
2018-02-10T09:10:06.348Z,82.07
2018-02-10T09:12:34.795Z,77.90
2018-02-10T09:15:03.317Z,89.60
2018-02-10T09:17:31.744Z,81.50
2018-02-10T09:20:00.192Z,80.90
2018-02-10T09:23:40.747Z,76.87
2018-02-10T09:26:09.151Z,83.60
2018-02-10T09:28:37.570Z,76.37
2018-02-10T09:31:06.032Z,81.03
2018-02-10T09:33:34.449Z,76.33
2018-02-10T09:36:02.886Z,84.83
2018-02-10T09:38:31.332Z,74.80
2018-02-10T09:40:59.735Z,80.80
2018-02-10T09:43:28.156Z,72.27
2018-02-10T09:45:56.625Z,76.40
2018-02-10T09:48:25.019Z,78.30
2018-02-10T09:50:53.429Z,75.37
2018-02-10T09:56:24.527Z,81.37
2018-02-10T09:58:52.984Z,79.03
2018-02-10T10:01:21.416Z,73.30
2018-02-10T10:03:49.855Z,79.50
2018-02-10T10:06:18.517Z,68.97
2018-02-10T10:08:46.910Z,74.37
2018-02-10T10:11:15.311Z,78.97
2018-02-10T10:13:43.765Z,69.43
2018-02-10T10:16:12.166Z,70.47
2018-02-10T10:18:40.571Z,77.83
2018-02-10T10:21:09.020Z,79.17
2018-02-10T10:23:37.434Z,78.40
2018-02-10T10:26:05.837Z,73.47
2018-02-10T10:28:34.303Z,68.97
2018-02-10T10:31:02.712Z,67.03
2018-02-10T10:33:31.121Z,71.63
2018-02-10T10:35:59.577Z,76.10
2018-02-10T10:38:28.042Z,71.87
2018-02-10T10:40:56.447Z,65.83
2018-02-10T10:43:24.888Z,74.27
2018-02-10T10:45:53.297Z,71.83
2018-02-10T10:48:21.705Z,70.63
2018-02-10T10:50:50.173Z,74.97
2018-02-10T10:53:18.589Z,71.10
2018-02-10T10:55:46.996Z,73.93
2018-02-10T10:58:15.446Z,76.00
2018-02-10T11:00:43.840Z,72.47
2018-02-10T11:03:12.261Z,68.90
2018-02-10T11:05:40.726Z,71.77
2018-02-10T11:08:09.130Z,70.97
2018-02-10T11:10:37.543Z,71.63
2018-02-10T11:13:05.994Z,70.93
2018-02-10T11:15:34.408Z,78.10
2018-02-10T11:18:02.824Z,79.33
2018-02-10T11:20:31.279Z,77.63
2018-02-10T11:22:59.685Z,73.90
2018-02-10T11:25:28.109Z,74.70
2018-02-10T11:27:56.550Z,75.00
2018-02-10T11:30:24.956Z,75.87
2018-02-10T11:32:54.224Z,71.87
2018-02-10T11:35:22.666Z,74.40
2018-02-10T11:37:51.087Z,72.07
2018-02-10T11:40:19.499Z,75.80
2018-02-10T11:42:47.956Z,79.63
2018-02-10T11:45:16.362Z,73.70
2018-02-10T11:47:44.762Z,73.93
2018-02-10T11:50:13.215Z,73.40
2018-02-10T11:52:41.637Z,78.17
2018-02-10T11:55:10.067Z,72.37
2018-02-10T11:57:38.529Z,69.80
2018-02-10T12:00:06.931Z,80.30
2018-02-10T12:02:35.332Z,71.57
2018-02-10T12:05:03.784Z,68.53
2018-02-10T12:07:32.195Z,68.73
2018-02-10T12:10:00.617Z,74.07
2018-02-10T12:12:29.078Z,72.73
2018-02-10T12:14:57.465Z,74.07
2018-02-10T12:17:25.930Z,66.13
2018-02-10T12:19:54.398Z,73.17
2018-02-10T12:22:22.792Z,70.47
2018-02-10T12:24:51.694Z,74.43
2018-02-10T12:27:20.145Z,77.07
2018-02-10T12:29:48.549Z,80.70
2018-02-10T12:32:16.951Z,70.47
2018-02-10T12:34:45.419Z,71.27
2018-02-10T12:37:13.831Z,75.33
2018-02-10T12:39:42.227Z,74.57
2018-02-10T12:42:10.723Z,74.63
2018-02-10T12:44:39.121Z,75.00
2018-02-10T12:47:07.520Z,70.30
2018-02-10T12:49:35.978Z,76.80
2018-02-10T12:52:04.383Z,73.03
2018-02-10T12:54:32.780Z,78.50
2018-02-10T12:57:01.373Z,77.73
2018-02-10T12:59:29.786Z,71.97
2018-02-10T13:01:58.192Z,79.73
2018-02-10T13:04:26.658Z,77.47
2018-02-10T13:06:55.055Z,79.90
2018-02-10T13:09:23.472Z,76.73
2018-02-10T13:11:51.931Z,79.17
2018-02-10T13:14:20.712Z,76.00
2018-02-10T13:16:49.161Z,73.90
2018-02-10T13:19:17.613Z,72.03
2018-02-10T13:21:45.998Z,78.27
2018-02-10T13:24:14.383Z,83.07
2018-02-10T13:26:42.829Z,79.73
2018-02-10T13:29:11.241Z,88.87
2018-02-10T13:31:39.635Z,79.97
2018-02-10T13:34:08.108Z,75.17
2018-02-10T13:36:36.526Z,77.07
2018-02-10T13:39:04.953Z,78.83
2018-02-10T13:41:33.407Z,80.07
2018-02-10T13:44:01.828Z,78.30
2018-02-10T13:46:30.243Z,80.70
2018-02-10T13:48:58.697Z,71.30
2018-02-10T13:51:27.120Z,78.57
2018-02-10T13:53:55.557Z,79.73
2018-02-10T13:56:24.099Z,78.60
2018-02-10T13:58:52.490Z,86.93
2018-02-10T14:01:20.901Z,78.23
2018-02-10T14:03:49.329Z,85.20
2018-02-10T14:06:17.719Z,83.17
2018-02-10T14:08:46.103Z,84.13
2018-02-10T14:11:14.532Z,86.40
2018-02-10T14:13:42.922Z,83.30
2018-02-10T14:16:11.327Z,80.07
2018-02-10T14:18:39.796Z,81.07
2018-02-10T14:21:08.202Z,85.30
2018-02-10T14:23:36.629Z,82.97
2018-02-10T14:26:05.066Z,85.50
2018-02-10T14:28:33.468Z,82.10
2018-02-10T14:31:01.877Z,81.20
2018-02-10T14:33:30.360Z,87.37
2018-02-10T14:35:58.766Z,77.17
2018-02-10T14:38:27.175Z,79.63
2018-02-10T14:40:55.613Z,89.60
2018-02-10T14:43:24.024Z,76.80
2018-02-10T14:45:52.423Z,80.43
2018-02-10T14:48:20.854Z,77.37
2018-02-10T14:50:49.269Z,77.47
2018-02-10T14:53:17.659Z,77.13
2018-02-10T14:55:46.927Z,73.93
2018-02-10T14:58:15.337Z,84.13
2018-02-10T15:00:43.746Z,96.17
2018-02-10T15:03:12.204Z,88.27
2018-02-10T15:05:40.624Z,85.40
2018-02-10T15:08:09.161Z,79.47
2018-02-10T15:10:37.602Z,75.97
2018-02-10T15:13:06.019Z,81.63
2018-02-10T15:15:34.432Z,78.10
2018-02-10T15:18:02.890Z,76.33
2018-02-10T15:20:31.299Z,77.57
2018-02-10T15:22:59.742Z,79.83
2018-02-10T15:25:28.219Z,78.67
2018-02-10T15:27:56.633Z,76.43
2018-02-10T15:30:36.895Z,76.70
2018-02-10T15:33:17.203Z,75.80
2018-02-10T15:35:45.633Z,81.13
2018-02-10T15:38:14.022Z,83.03
2018-02-10T15:40:42.432Z,82.07
2018-02-10T15:43:10.906Z,80.07
2018-02-10T15:45:39.303Z,83.87
2018-02-10T15:48:07.711Z,86.87
2018-02-10T15:50:36.146Z,84.07
2018-02-10T15:53:04.555Z,86.37
2018-02-10T15:55:32.981Z,75.17
2018-02-10T15:58:01.442Z,74.77
2018-02-10T16:00:29.837Z,89.60
2018-02-10T16:02:58.237Z,82.43
2018-02-10T16:05:26.683Z,74.90
2018-02-10T16:07:55.101Z,76.10
2018-02-10T16:10:23.505Z,78.00
2018-02-10T16:12:51.954Z,81.50
2018-02-10T16:15:20.360Z,71.30
2018-02-10T16:17:48.762Z,78.90
2018-02-10T16:20:17.209Z,80.10
2018-02-10T16:22:45.616Z,80.97
2018-02-10T16:25:14.013Z,80.60
2018-02-10T16:27:42.482Z,78.30
2018-02-10T16:30:10.895Z,78.37
2018-02-10T16:32:39.320Z,76.63
2018-02-10T16:35:07.941Z,82.13
2018-02-10T16:37:36.346Z,70.77
2018-02-10T16:40:04.780Z,71.20
2018-02-10T16:42:33.239Z,79.23
2018-02-10T16:45:01.633Z,75.37
2018-02-10T16:47:30.030Z,72.23
2018-02-10T16:49:58.470Z,78.40
2018-02-10T16:52:26.863Z,79.37
2018-02-10T16:54:55.286Z,78.17
2018-02-10T16:57:23.743Z,79.57
2018-02-10T16:59:52.148Z,73.60
2018-02-10T17:02:20.546Z,75.90
2018-02-10T17:04:49.019Z,80.37
2018-02-10T17:07:17.450Z,79.80
2018-02-10T17:09:45.838Z,69.87
2018-02-10T17:12:14.330Z,81.43
2018-02-10T17:14:42.748Z,77.43
2018-02-10T17:17:11.148Z,76.73
2018-02-10T17:19:39.592Z,74.07
2018-02-10T17:22:08.236Z,71.53
2018-02-10T17:24:36.641Z,79.63
2018-02-10T17:27:05.133Z,74.73
2018-02-10T17:29:33.534Z,73.13
2018-02-10T17:32:01.945Z,85.73
2018-02-10T17:34:30.386Z,81.00
2018-02-10T17:36:58.797Z,78.97
2018-02-10T17:39:27.250Z,74.53
2018-02-10T17:41:55.735Z,73.73
2018-02-10T17:44:24.131Z,82.70
2018-02-10T17:46:52.772Z,74.40
2018-02-10T17:49:21.215Z,81.57
2018-02-10T17:51:49.624Z,79.63
2018-02-10T17:54:18.082Z,74.50
2018-02-10T17:56:46.540Z,66.50
2018-02-10T17:59:16.382Z,70.37
2018-02-10T18:01:44.805Z,71.83
2018-02-10T18:04:13.280Z,71.30
2018-02-10T18:06:41.693Z,64.67
2018-02-10T18:09:10.109Z,69.20
2018-02-10T18:11:39.181Z,65.30
2018-02-10T18:14:08.352Z,62.17
2018-02-10T18:16:36.750Z,67.23
2018-02-10T18:19:05.189Z,65.27
2018-02-10T18:21:35.331Z,70.10
2018-02-10T18:24:03.734Z,71.17
2018-02-10T18:26:32.187Z,68.77
2018-02-10T18:29:00.582Z,68.50
2018-02-10T18:31:28.993Z,60.30
2018-02-10T18:33:57.435Z,65.60
2018-02-10T18:36:25.840Z,71.70
2018-02-10T18:38:54.242Z,64.37
2018-02-10T18:41:22.831Z,71.63
2018-02-10T18:43:51.248Z,75.33
2018-02-10T18:46:19.663Z,64.20
2018-02-10T18:48:48.115Z,63.83
2018-02-10T18:51:16.520Z,65.77
2018-02-10T18:53:44.928Z,61.00
2018-02-10T18:56:13.359Z,70.53
2018-02-10T18:58:41.754Z,69.13
2018-02-10T19:01:10.143Z,60.87
2018-02-10T19:03:38.666Z,63.90
2018-02-10T19:06:07.072Z,67.07
2018-02-10T19:08:35.472Z,60.90
2018-02-10T19:11:03.932Z,73.50
2018-02-10T19:13:32.355Z,66.13
2018-02-10T19:16:00.752Z,59.00
2018-02-10T19:18:30.656Z,66.07
2018-02-10T19:20:59.052Z,61.60
2018-02-10T19:23:27.457Z,60.07
2018-02-10T19:25:55.911Z,62.97
2018-02-10T19:28:24.322Z,62.33
2018-02-10T19:30:52.724Z,63.87
2018-02-10T19:33:21.176Z,61.67
2018-02-10T19:35:49.594Z,66.70
2018-02-10T19:38:18.003Z,60.40
2018-02-10T19:40:46.464Z,59.83
2018-02-10T19:43:14.886Z,66.53
2018-02-10T19:45:43.284Z,65.07
2018-02-10T19:48:11.748Z,72.83
2018-02-10T19:50:40.143Z,68.63
2018-02-10T19:53:08.548Z,67.30
2018-02-10T19:55:37.004Z,62.93
2018-02-10T19:58:05.428Z,68.97
2018-02-10T20:00:33.840Z,66.07
2018-02-10T20:03:02.297Z,60.73
2018-02-10T20:05:30.697Z,59.90
2018-02-10T20:07:59.106Z,55.47
2018-02-10T20:10:27.579Z,57.23
2018-02-10T20:12:56.003Z,53.90
2018-02-10T20:15:24.420Z,59.50
2018-02-10T20:17:52.907Z,54.00
2018-02-10T20:20:21.319Z,54.83
2018-02-10T20:22:49.721Z,52.87
2018-02-10T20:25:18.217Z,54.23
2018-02-10T20:27:46.614Z,54.47
2018-02-10T20:30:15.022Z,54.27
2018-02-10T20:32:43.464Z,56.20
2018-02-10T20:35:11.857Z,56.20
2018-02-10T20:37:40.289Z,52.40
2018-02-10T20:40:08.742Z,56.17
2018-02-10T20:42:37.151Z,52.07
2018-02-10T20:45:05.554Z,56.83
2018-02-10T20:47:34.628Z,56.83
2018-02-10T20:50:03.030Z,54.90
2018-02-10T20:52:31.442Z,50.77
2018-02-10T20:54:59.899Z,57.07
2018-02-10T20:57:28.307Z,55.53
2018-02-10T20:59:56.713Z,53.30
2018-02-10T21:02:25.189Z,60.37
2018-02-10T21:04:53.594Z,53.43
2018-02-10T21:07:21.989Z,53.63
2018-02-10T21:09:50.438Z,55.67
2018-02-10T21:12:18.879Z,58.83
2018-02-10T21:14:47.303Z,52.10
2018-02-10T21:17:16.110Z,51.57
2018-02-10T21:19:44.509Z,53.23
2018-02-10T21:22:12.913Z,48.47
2018-02-10T21:24:41.362Z,50.07
2018-02-10T21:27:09.784Z,46.13
2018-02-10T21:29:38.189Z,50.13
2018-02-10T21:32:06.630Z,42.90
2018-02-10T21:34:35.239Z,48.00
2018-02-10T21:37:03.486Z,47.53
2018-02-10T21:39:31.945Z,45.57
2018-02-10T21:42:00.386Z,41.23
2018-02-10T21:44:28.812Z,44.13
2018-02-10T21:46:58.313Z,42.93
2018-02-10T21:49:26.716Z,46.57
2018-02-10T21:51:55.149Z,43.63
2018-02-10T21:54:23.607Z,44.23
2018-02-10T21:56:52.002Z,43.60
2018-02-10T21:59:20.423Z,44.77
2018-02-10T22:01:48.880Z,42.43
2018-02-10T22:04:17.319Z,43.13
2018-02-10T22:06:45.731Z,42.90
2018-02-10T22:09:14.351Z,40.93
2018-02-10T22:11:42.744Z,42.07
2018-02-10T22:14:11.169Z,41.70
2018-02-10T22:16:39.617Z,49.37
2018-02-10T22:19:08.024Z,47.83
2018-02-10T22:21:36.432Z,46.47
2018-02-10T22:24:04.912Z,43.33
2018-02-10T22:26:33.332Z,40.70
2018-02-10T22:29:01.754Z,43.20
2018-02-10T22:31:30.271Z,44.20
2018-02-10T22:33:58.654Z,46.13
2018-02-10T22:36:27.055Z,41.53
2018-02-10T22:38:55.655Z,41.27
2018-02-10T22:41:24.087Z,42.07
2018-02-10T22:43:52.497Z,38.07
2018-02-10T22:46:20.931Z,40.20
2018-02-10T22:48:49.331Z,38.87
2018-02-10T22:51:17.718Z,41.03
2018-02-10T22:53:46.165Z,36.87
2018-02-10T22:56:14.562Z,34.83
2018-02-10T22:58:42.967Z,39.47
2018-02-10T23:01:17.226Z,38.53
2018-02-10T23:03:45.641Z,38.00
2018-02-10T23:06:14.056Z,39.77
2018-02-10T23:08:42.502Z,37.10
2018-02-10T23:11:10.965Z,40.57
2018-02-10T23:13:39.377Z,39.07
2018-02-10T23:16:07.867Z,42.97
2018-02-10T23:18:36.277Z,38.43
2018-02-10T23:21:04.661Z,38.13
2018-02-10T23:23:33.113Z,35.87
2018-02-10T23:26:01.535Z,35.77
2018-02-10T23:28:29.934Z,36.43
2018-02-10T23:30:58.401Z,33.63
2018-02-10T23:33:26.808Z,37.00
2018-02-10T23:35:55.205Z,35.63
2018-02-10T23:38:23.642Z,34.63
2018-02-10T23:40:52.038Z,33.27
2018-02-10T23:43:20.418Z,34.20
2018-02-10T23:45:48.899Z,31.97
2018-02-10T23:48:17.316Z,35.47
2018-02-10T23:50:45.739Z,31.93
2018-02-10T23:53:14.170Z,32.03
2018-02-10T23:55:42.567Z,35.80
2018-02-10T23:58:10.990Z,33.10
